Aérodrome :
LOGIN :

S'inscrire | Disclaimer

   EN    FR    IT 

 










Légende :    VFR   VFR Marginal   IFR   IFR Intensif   IFR Très Intensif
Visi : 
Plafond : 
>= 8 km
>= 3000ft
5 à 8 km
1000 à 3000 ft
1500m à 5 km
500 à 1000 ft
800 à 1500m
200 à 500 ft
< 800m
< 200 ft
Symboles :   Orages  Brouillard  Fortes neiges  Fortes précipitations  Vent > 20 kt
SIGMETs :   Divers  Orages  Givrage  Turbulence  Onde Orograph.  Cendres Volcan.






- Altitude de l'aérodrome : 49 ft
- Code IATA : SEN


EGMC - Southend

DERNIER METAR :
  • 060450Z 22017KT 9999 -RA FEW008 BKN010 11/10 Q1008

METARs EXPIRÉS :
  • 060420Z 22017KT 6000 SHRA FEW008 BKN012 10/10 Q1008
  • 060350Z 22016KT 9999 BKN012 10/09 Q1008
  • 060320Z 22015KT 9999 BKN011 10/09 Q1009
  • 060220Z 23017KT 9999 -SHRA BKN011 10/09 Q1009
  • 060150Z 22021KT 9999 BCFG BKN014 10/08 Q1009

TAF TAF EGMC
Valide du 06 à 03h jusqu'au 06 à 12h UTC


060158Z 0603/0612 22017KT 9999 BKN014
TEMPO 0603/0612 7000 -RADZ BKN008
PROB40
TEMPO 0603/0612 3000 RADZ
PROB30
TEMPO 0603/0612 24020G30KT



MET'MAP, la Météo Aéronautique d'un coup d'oeil ! - Copyright ORBIFLY Décembre 2007 - Disclaimer

ORBIFLY MET'MAP TEAM :

Programmation & Développement : Alexandra Zaïnal
Sur une idée originale de : Baudouin d'Aumeries
Assistance à la programmation : Marc-Olivier Méhu
Soutien technique & logistique : Manuel Goepfert

Contact : metmap@orbifly.com




SOURCES & CREDITS :

   NOAA